Terminal Aerodrome Forecast
Issued by NWS Oklahoma City, OK

Home | Current Version | Previous Version | Text Only | Print | Product List | Glossary On
Versions: 1 2 3 4 5 6 7 8 9 10 11 12 13 14 15 16
000
FTUS44 KOUN 182335
TAFOUN
TAF
KOUN 182335Z 1900/1924 17006KT P6SM BKN050
     FM190300 17005KT P6SM OVC025
     FM190600 16004KT 4SM BR OVC015
     FM190900 16004KT 2SM BR OVC008
      TEMPO 1910/1914 3/4SM -DZ BR OVC003
     FM191600 18010KT 6SM BR OVC020
     FM191900 19012KT P6SM BKN040=

USA.gov is the U.S. government's official web portal to all federal, state and local government web resources and services.